sensor_id;sensor_type;location;lat;lon;timestamp;temperature;humidity
12125;DHT22;6126;57.908;16.490;2022-12-18T00:01:33;-1.80;95.70
12125;DHT22;6126;57.908;16.490;2022-12-18T00:04:02;-1.70;95.80
12125;DHT22;6126;57.908;16.490;2022-12-18T00:06:29;-1.80;95.70
12125;DHT22;6126;57.908;16.490;2022-12-18T00:08:57;-2.00;95.70
12125;DHT22;6126;57.908;16.490;2022-12-18T00:11:26;-2.00;95.60
12125;DHT22;6126;57.908;16.490;2022-12-18T00:13:55;-2.00;95.60
12125;DHT22;6126;57.908;16.490;2022-12-18T00:16:24;-1.80;95.70
12125;DHT22;6126;57.908;16.490;2022-12-18T00:18:53;-1.80;95.70
12125;DHT22;6126;57.908;16.490;2022-12-18T00:21:21;-1.80;95.80
12125;DHT22;6126;57.908;16.490;2022-12-18T00:23:48;-1.90;95.80
12125;DHT22;6126;57.908;16.490;2022-12-18T00:26:34;-1.90;95.70
12125;DHT22;6126;57.908;16.490;2022-12-18T00:29:09;-1.80;95.80
12125;DHT22;6126;57.908;16.490;2022-12-18T00:31:39;-1.90;95.80
12125;DHT22;6126;57.908;16.490;2022-12-18T00:34:05;-1.90;95.70
12125;DHT22;6126;57.908;16.490;2022-12-18T00:36:33;-2.10;95.60
12125;DHT22;6126;57.908;16.490;2022-12-18T00:39:02;-1.90;95.70
12125;DHT22;6126;57.908;16.490;2022-12-18T00:41:30;-2.00;95.60
12125;DHT22;6126;57.908;16.490;2022-12-18T00:44:16;-1.70;95.80
12125;DHT22;6126;57.908;16.490;2022-12-18T00:46:44;-1.90;95.80
12125;DHT22;6126;57.908;16.490;2022-12-18T00:49:11;-1.90;95.70
12125;DHT22;6126;57.908;16.490;2022-12-18T00:51:36;-1.80;95.80
12125;DHT22;6126;57.908;16.490;2022-12-18T00:54:02;-1.90;95.70
12125;DHT22;6126;57.908;16.490;2022-12-18T00:56:29;-1.70;95.80
12125;DHT22;6126;57.908;16.490;2022-12-18T00:58:55;-1.80;95.70
12125;DHT22;6126;57.908;16.490;2022-12-18T01:01:20;-1.90;95.70
12125;DHT22;6126;57.908;16.490;2022-12-18T01:03:46;-1.80;95.80
12125;DHT22;6126;57.908;16.490;2022-12-18T01:06:14;-1.80;95.80
12125;DHT22;6126;57.908;16.490;2022-12-18T01:08:40;-1.80;95.80
12125;DHT22;6126;57.908;16.490;2022-12-18T01:11:08;-1.90;95.80
12125;DHT22;6126;57.908;16.490;2022-12-18T01:13:39;-2.00;95.80
12125;DHT22;6126;57.908;16.490;2022-12-18T01:16:06;-1.90;95.70
12125;DHT22;6126;57.908;16.490;2022-12-18T01:18:34;-2.10;95.80
12125;DHT22;6126;57.908;16.490;2022-12-18T01:21:02;-1.90;95.80
12125;DHT22;6126;57.908;16.490;2022-12-18T01:23:31;-1.90;95.80
12125;DHT22;6126;57.908;16.490;2022-12-18T01:25:57;-1.80;95.80
12125;DHT22;6126;57.908;16.490;2022-12-18T01:28:23;-1.90;95.80
12125;DHT22;6126;57.908;16.490;2022-12-18T01:30:49;-1.80;95.90
12125;DHT22;6126;57.908;16.490;2022-12-18T01:33:15;-1.80;95.90
12125;DHT22;6126;57.908;16.490;2022-12-18T01:35:42;-2.00;95.80
12125;DHT22;6126;57.908;16.490;2022-12-18T01:38:08;-1.90;95.80
12125;DHT22;6126;57.908;16.490;2022-12-18T01:40:35;-1.70;95.90
12125;DHT22;6126;57.908;16.490;2022-12-18T01:43:01;-1.80;95.80
12125;DHT22;6126;57.908;16.490;2022-12-18T01:45:30;-1.60;95.90
12125;DHT22;6126;57.908;16.490;2022-12-18T01:48:06;-1.80;95.70
12125;DHT22;6126;57.908;16.490;2022-12-18T01:50:40;-1.70;95.80
12125;DHT22;6126;57.908;16.490;2022-12-18T01:53:17;-1.60;95.80
12125;DHT22;6126;57.908;16.490;2022-12-18T01:55:51;-1.70;95.80
12125;DHT22;6126;57.908;16.490;2022-12-18T01:58:32;-1.50;95.80
12125;DHT22;6126;57.908;16.490;2022-12-18T02:01:05;-1.60;95.80
12125;DHT22;6126;57.908;16.490;2022-12-18T02:03:31;-1.40;95.90
12125;DHT22;6126;57.908;16.490;2022-12-18T02:06:09;-1.60;95.80
12125;DHT22;6126;57.908;16.490;2022-12-18T02:09:30;-1.30;95.90
12125;DHT22;6126;57.908;16.490;2022-12-18T02:12:18;-1.30;95.80
12125;DHT22;6126;57.908;16.490;2022-12-18T02:17:42;-1.60;95.80
12125;DHT22;6126;57.908;16.490;2022-12-18T02:20:30;-1.60;95.70
12125;DHT22;6126;57.908;16.490;2022-12-18T02:26:20;-1.20;95.90
12125;DHT22;6126;57.908;16.490;2022-12-18T02:29:02;-1.30;95.90
12125;DHT22;6126;57.908;16.490;2022-12-18T02:31:54;-1.30;95.80
12125;DHT22;6126;57.908;16.490;2022-12-18T02:34:27;-1.30;95.80
12125;DHT22;6126;57.908;16.490;2022-12-18T02:36:57;-0.90;96.00
12125;DHT22;6126;57.908;16.490;2022-12-18T02:39:29;-1.20;95.90
12125;DHT22;6126;57.908;16.490;2022-12-18T02:41:59;-1.10;95.90
12125;DHT22;6126;57.908;16.490;2022-12-18T02:44:27;-1.10;95.90
12125;DHT22;6126;57.908;16.490;2022-12-18T02:46:54;-1.00;95.90
12125;DHT22;6126;57.908;16.490;2022-12-18T02:55:00;-1.00;95.90
12125;DHT22;6126;57.908;16.490;2022-12-18T03:00:41;-0.70;96.00
12125;DHT22;6126;57.908;16.490;2022-12-18T03:06:16;-0.90;95.90
12125;DHT22;6126;57.908;16.490;2022-12-18T03:08:52;-0.90;95.90
12125;DHT22;6126;57.908;16.490;2022-12-18T03:11:25;-0.60;96.00
12125;DHT22;6126;57.908;16.490;2022-12-18T03:14:14;-0.60;96.00
12125;DHT22;6126;57.908;16.490;2022-12-18T03:16:43;-0.50;96.10
12125;DHT22;6126;57.908;16.490;2022-12-18T03:19:19;-0.50;96.10
12125;DHT22;6126;57.908;16.490;2022-12-18T03:21:54;-0.40;96.10
12125;DHT22;6126;57.908;16.490;2022-12-18T03:24:24;-0.70;96.00
12125;DHT22;6126;57.908;16.490;2022-12-18T03:26:58;-0.40;96.10
12125;DHT22;6126;57.908;16.490;2022-12-18T03:29:35;-0.50;96.00
12125;DHT22;6126;57.908;16.490;2022-12-18T03:32:18;-0.70;95.90
12125;DHT22;6126;57.908;16.490;2022-12-18T03:34:51;-0.60;96.00
12125;DHT22;6126;57.908;16.490;2022-12-18T03:37:20;-0.40;96.10
12125;DHT22;6126;57.908;16.490;2022-12-18T03:39:46;-0.50;96.00
12125;DHT22;6126;57.908;16.490;2022-12-18T03:42:21;-0.40;96.00
12125;DHT22;6126;57.908;16.490;2022-12-18T03:44:55;-0.40;96.10
12125;DHT22;6126;57.908;16.490;2022-12-18T03:50:53;-0.30;96.10
12125;DHT22;6126;57.908;16.490;2022-12-18T03:54:01;-0.40;96.10
12125;DHT22;6126;57.908;16.490;2022-12-18T03:56:34;-0.50;96.00
12125;DHT22;6126;57.908;16.490;2022-12-18T03:59:04;-0.10;96.10
12125;DHT22;6126;57.908;16.490;2022-12-18T04:01:38;-0.20;96.10
12125;DHT22;6126;57.908;16.490;2022-12-18T04:04:08;-0.10;96.20
12125;DHT22;6126;57.908;16.490;2022-12-18T04:06:37;-0.30;96.00
12125;DHT22;6126;57.908;16.490;2022-12-18T04:09:04;-0.10;96.10
12125;DHT22;6126;57.908;16.490;2022-12-18T04:11:31;0.00;96.20
12125;DHT22;6126;57.908;16.490;2022-12-18T04:13:57;-0.10;96.10
12125;DHT22;6126;57.908;16.490;2022-12-18T04:16:27;-0.10;96.20
12125;DHT22;6126;57.908;16.490;2022-12-18T04:18:53;-0.10;96.10
12125;DHT22;6126;57.908;16.490;2022-12-18T04:21:20;-0.30;96.10
12125;DHT22;6126;57.908;16.490;2022-12-18T04:23:46;-0.30;96.00
12125;DHT22;6126;57.908;16.490;2022-12-18T04:26:12;-0.10;96.10
12125;DHT22;6126;57.908;16.490;2022-12-18T04:28:38;-0.20;96.10
12125;DHT22;6126;57.908;16.490;2022-12-18T04:31:04;-0.10;96.20
12125;DHT22;6126;57.908;16.490;2022-12-18T04:33:30;-0.30;96.10
12125;DHT22;6126;57.908;16.490;2022-12-18T04:35:55;-0.10;96.10
12125;DHT22;6126;57.908;16.490;2022-12-18T04:38:21;-0.10;96.10
12125;DHT22;6126;57.908;16.490;2022-12-18T04:40:47;-0.10;96.10
12125;DHT22;6126;57.908;16.490;2022-12-18T04:43:13;-0.30;96.00
12125;DHT22;6126;57.908;16.490;2022-12-18T04:45:39;-0.30;96.00
12125;DHT22;6126;57.908;16.490;2022-12-18T04:48:05;-0.10;96.20
12125;DHT22;6126;57.908;16.490;2022-12-18T04:50:31;-0.10;96.20
12125;DHT22;6126;57.908;16.490;2022-12-18T04:52:58;-0.10;96.20
12125;DHT22;6126;57.908;16.490;2022-12-18T04:55:25;-0.20;96.10
12125;DHT22;6126;57.908;16.490;2022-12-18T04:57:52;-0.30;96.10
12125;DHT22;6126;57.908;16.490;2022-12-18T05:00:19;-0.10;96.20
12125;DHT22;6126;57.908;16.490;2022-12-18T05:02:45;-0.50;96.00
12125;DHT22;6126;57.908;16.490;2022-12-18T05:05:11;-0.10;96.10
12125;DHT22;6126;57.908;16.490;2022-12-18T05:07:37;-0.20;96.10
12125;DHT22;6126;57.908;16.490;2022-12-18T05:10:03;-0.40;96.10
12125;DHT22;6126;57.908;16.490;2022-12-18T05:12:32;-0.40;96.10
12125;DHT22;6126;57.908;16.490;2022-12-18T05:14:58;-0.30;96.20
12125;DHT22;6126;57.908;16.490;2022-12-18T05:17:24;-0.30;96.10
12125;DHT22;6126;57.908;16.490;2022-12-18T05:19:50;-0.20;96.20
12125;DHT22;6126;57.908;16.490;2022-12-18T05:22:16;-0.30;96.20
12125;DHT22;6126;57.908;16.490;2022-12-18T05:24:42;-0.10;96.30
12125;DHT22;6126;57.908;16.490;2022-12-18T05:27:07;0.00;96.30
12125;DHT22;6126;57.908;16.490;2022-12-18T05:29:33;-0.10;96.30
12125;DHT22;6126;57.908;16.490;2022-12-18T05:31:59;-0.30;96.20
12125;DHT22;6126;57.908;16.490;2022-12-18T05:34:25;-0.30;96.20
12125;DHT22;6126;57.908;16.490;2022-12-18T05:36:51;-0.30;96.20
12125;DHT22;6126;57.908;16.490;2022-12-18T05:39:17;-0.20;96.30
12125;DHT22;6126;57.908;16.490;2022-12-18T05:41:43;0.00;96.40
12125;DHT22;6126;57.908;16.490;2022-12-18T05:44:08;0.00;96.40
12125;DHT22;6126;57.908;16.490;2022-12-18T05:46:34;0.00;96.30
12125;DHT22;6126;57.908;16.490;2022-12-18T05:49:01;-0.30;96.20
12125;DHT22;6126;57.908;16.490;2022-12-18T05:51:28;-0.10;96.30
12125;DHT22;6126;57.908;16.490;2022-12-18T05:53:54;0.10;96.40
12125;DHT22;6126;57.908;16.490;2022-12-18T05:56:21;0.00;96.40
12125;DHT22;6126;57.908;16.490;2022-12-18T05:58:52;0.00;96.40
12125;DHT22;6126;57.908;16.490;2022-12-18T06:01:22;-0.20;96.30
12125;DHT22;6126;57.908;16.490;2022-12-18T06:03:50;0.10;96.40
12125;DHT22;6126;57.908;16.490;2022-12-18T06:06:24;0.00;96.40
12125;DHT22;6126;57.908;16.490;2022-12-18T06:08:52;0.10;96.50
12125;DHT22;6126;57.908;16.490;2022-12-18T06:11:20;0.10;96.40
12125;DHT22;6126;57.908;16.490;2022-12-18T06:13:50;0.10;96.40
12125;DHT22;6126;57.908;16.490;2022-12-18T06:16:17;0.10;96.50
12125;DHT22;6126;57.908;16.490;2022-12-18T06:18:43;0.10;96.50
12125;DHT22;6126;57.908;16.490;2022-12-18T06:21:10;0.20;96.50
12125;DHT22;6126;57.908;16.490;2022-12-18T06:23:36;0.00;96.40
12125;DHT22;6126;57.908;16.490;2022-12-18T06:26:07;-0.10;96.40
12125;DHT22;6126;57.908;16.490;2022-12-18T06:28:34;-0.10;96.40
12125;DHT22;6126;57.908;16.490;2022-12-18T06:31:00;0.00;96.50
12125;DHT22;6126;57.908;16.490;2022-12-18T06:33:28;0.20;96.50
12125;DHT22;6126;57.908;16.490;2022-12-18T06:38:41;0.10;96.50
12125;DHT22;6126;57.908;16.490;2022-12-18T06:41:17;0.10;96.50
12125;DHT22;6126;57.908;16.490;2022-12-18T06:43:44;0.00;96.40
12125;DHT22;6126;57.908;16.490;2022-12-18T06:46:11;0.10;96.50
12125;DHT22;6126;57.908;16.490;2022-12-18T06:48:38;0.30;96.60
12125;DHT22;6126;57.908;16.490;2022-12-18T06:51:04;0.00;96.40
12125;DHT22;6126;57.908;16.490;2022-12-18T06:53:31;0.40;96.60
12125;DHT22;6126;57.908;16.490;2022-12-18T06:56:06;0.30;96.60
12125;DHT22;6126;57.908;16.490;2022-12-18T06:58:33;0.20;96.60
12125;DHT22;6126;57.908;16.490;2022-12-18T07:01:00;0.40;96.70
12125;DHT22;6126;57.908;16.490;2022-12-18T07:03:27;0.20;96.60
12125;DHT22;6126;57.908;16.490;2022-12-18T07:05:53;0.40;96.60
12125;DHT22;6126;57.908;16.490;2022-12-18T07:08:19;0.30;96.60
12125;DHT22;6126;57.908;16.490;2022-12-18T07:10:45;0.30;96.60
12125;DHT22;6126;57.908;16.490;2022-12-18T07:13:11;0.40;96.60
12125;DHT22;6126;57.908;16.490;2022-12-18T07:15:37;0.60;96.70
12125;DHT22;6126;57.908;16.490;2022-12-18T07:18:03;0.50;96.70
12125;DHT22;6126;57.908;16.490;2022-12-18T07:20:29;0.40;96.60
12125;DHT22;6126;57.908;16.490;2022-12-18T07:22:54;0.60;96.70
12125;DHT22;6126;57.908;16.490;2022-12-18T07:25:21;0.60;96.70
12125;DHT22;6126;57.908;16.490;2022-12-18T07:27:47;0.40;96.60
12125;DHT22;6126;57.908;16.490;2022-12-18T07:30:13;0.50;96.60
12125;DHT22;6126;57.908;16.490;2022-12-18T07:32:38;0.40;96.50
12125;DHT22;6126;57.908;16.490;2022-12-18T07:35:04;0.60;96.70
12125;DHT22;6126;57.908;16.490;2022-12-18T07:37:31;0.60;96.60
12125;DHT22;6126;57.908;16.490;2022-12-18T07:39:57;0.60;96.60
12125;DHT22;6126;57.908;16.490;2022-12-18T07:42:22;0.60;96.60
12125;DHT22;6126;57.908;16.490;2022-12-18T07:45:01;0.60;96.60
12125;DHT22;6126;57.908;16.490;2022-12-18T07:47:28;1.00;96.80
12125;DHT22;6126;57.908;16.490;2022-12-18T07:49:58;0.60;96.60
12125;DHT22;6126;57.908;16.490;2022-12-18T07:52:24;0.70;96.60
12125;DHT22;6126;57.908;16.490;2022-12-18T07:54:49;0.60;96.60
12125;DHT22;6126;57.908;16.490;2022-12-18T07:57:16;0.70;96.60
12125;DHT22;6126;57.908;16.490;2022-12-18T07:59:43;0.70;96.60
12125;DHT22;6126;57.908;16.490;2022-12-18T08:02:09;1.00;96.80
12125;DHT22;6126;57.908;16.490;2022-12-18T08:04:35;0.70;96.60
12125;DHT22;6126;57.908;16.490;2022-12-18T08:07:01;0.80;96.60
12125;DHT22;6126;57.908;16.490;2022-12-18T08:09:27;0.80;96.60
12125;DHT22;6126;57.908;16.490;2022-12-18T08:11:52;0.90;96.70
12125;DHT22;6126;57.908;16.490;2022-12-18T08:14:18;0.90;96.70
12125;DHT22;6126;57.908;16.490;2022-12-18T08:16:44;1.20;96.80
12125;DHT22;6126;57.908;16.490;2022-12-18T08:19:10;0.90;96.60
12125;DHT22;6126;57.908;16.490;2022-12-18T08:21:36;1.00;96.70
12125;DHT22;6126;57.908;16.490;2022-12-18T08:24:02;1.20;96.80
12125;DHT22;6126;57.908;16.490;2022-12-18T08:26:30;1.10;96.70
12125;DHT22;6126;57.908;16.490;2022-12-18T08:28:58;1.00;96.70
12125;DHT22;6126;57.908;16.490;2022-12-18T08:31:25;1.10;96.70
12125;DHT22;6126;57.908;16.490;2022-12-18T08:33:52;1.00;96.70
12125;DHT22;6126;57.908;16.490;2022-12-18T08:36:20;1.10;96.70
12125;DHT22;6126;57.908;16.490;2022-12-18T08:38:46;1.10;96.70
12125;DHT22;6126;57.908;16.490;2022-12-18T08:41:14;1.20;96.70
12125;DHT22;6126;57.908;16.490;2022-12-18T08:43:42;1.20;96.70
12125;DHT22;6126;57.908;16.490;2022-12-18T08:46:27;1.40;96.70
12125;DHT22;6126;57.908;16.490;2022-12-18T08:48:59;1.20;96.70
12125;DHT22;6126;57.908;16.490;2022-12-18T08:51:25;1.30;96.70
12125;DHT22;6126;57.908;16.490;2022-12-18T08:53:51;1.40;96.70
12125;DHT22;6126;57.908;16.490;2022-12-18T08:56:17;1.40;96.80
12125;DHT22;6126;57.908;16.490;2022-12-18T08:58:43;1.20;96.70
12125;DHT22;6126;57.908;16.490;2022-12-18T09:01:11;1.20;96.60
12125;DHT22;6126;57.908;16.490;2022-12-18T09:03:38;1.30;96.70
12125;DHT22;6126;57.908;16.490;2022-12-18T09:06:05;1.30;96.70
12125;DHT22;6126;57.908;16.490;2022-12-18T09:08:31;1.30;96.70
12125;DHT22;6126;57.908;16.490;2022-12-18T09:11:00;1.40;96.70
12125;DHT22;6126;57.908;16.490;2022-12-18T09:13:25;1.60;96.80
12125;DHT22;6126;57.908;16.490;2022-12-18T09:15:53;1.30;96.70
12125;DHT22;6126;57.908;16.490;2022-12-18T09:18:23;1.40;96.70
12125;DHT22;6126;57.908;16.490;2022-12-18T09:20:49;1.50;96.80
12125;DHT22;6126;57.908;16.490;2022-12-18T09:23:17;1.30;96.70
12125;DHT22;6126;57.908;16.490;2022-12-18T09:25:44;1.30;96.70
12125;DHT22;6126;57.908;16.490;2022-12-18T09:28:12;1.40;96.70
12125;DHT22;6126;57.908;16.490;2022-12-18T09:30:46;1.60;96.80
12125;DHT22;6126;57.908;16.490;2022-12-18T09:33:14;1.40;96.70
12125;DHT22;6126;57.908;16.490;2022-12-18T09:35:42;1.30;96.60
12125;DHT22;6126;57.908;16.490;2022-12-18T09:38:15;1.30;96.60
12125;DHT22;6126;57.908;16.490;2022-12-18T09:40:47;1.50;96.70
12125;DHT22;6126;57.908;16.490;2022-12-18T09:43:24;1.40;96.60
12125;DHT22;6126;57.908;16.490;2022-12-18T09:46:01;1.50;96.70
12125;DHT22;6126;57.908;16.490;2022-12-18T09:48:34;1.50;96.70
12125;DHT22;6126;57.908;16.490;2022-12-18T09:53:59;1.40;96.70
12125;DHT22;6126;57.908;16.490;2022-12-18T09:56:34;1.50;96.70
12125;DHT22;6126;57.908;16.490;2022-12-18T09:59:04;1.50;96.70
12125;DHT22;6126;57.908;16.490;2022-12-18T10:01:32;1.40;96.60
12125;DHT22;6126;57.908;16.490;2022-12-18T10:03:58;1.50;96.70
12125;DHT22;6126;57.908;16.490;2022-12-18T10:09:40;1.40;96.60
12125;DHT22;6126;57.908;16.490;2022-12-18T10:12:26;1.50;96.70
12125;DHT22;6126;57.908;16.490;2022-12-18T10:15:24;1.40;96.60
12125;DHT22;6126;57.908;16.490;2022-12-18T10:18:21;1.60;96.70
12125;DHT22;6126;57.908;16.490;2022-12-18T10:20:51;1.50;96.70
12125;DHT22;6126;57.908;16.490;2022-12-18T10:26:08;1.50;96.70
12125;DHT22;6126;57.908;16.490;2022-12-18T10:28:38;1.90;96.90
12125;DHT22;6126;57.908;16.490;2022-12-18T10:31:16;1.80;96.80
12125;DHT22;6126;57.908;16.490;2022-12-18T10:33:44;1.70;96.80
12125;DHT22;6126;57.908;16.490;2022-12-18T10:36:11;1.70;96.80
12125;DHT22;6126;57.908;16.490;2022-12-18T10:38:37;1.70;96.70
12125;DHT22;6126;57.908;16.490;2022-12-18T10:43:44;1.80;96.80
12125;DHT22;6126;57.908;16.490;2022-12-18T10:48:53;1.90;97.10
12125;DHT22;6126;57.908;16.490;2022-12-18T10:54:06;1.90;96.80
12125;DHT22;6126;57.908;16.490;2022-12-18T10:56:41;2.00;96.80
12125;DHT22;6126;57.908;16.490;2022-12-18T10:59:10;2.00;96.70
12125;DHT22;6126;57.908;16.490;2022-12-18T11:09:35;2.10;96.80
12125;DHT22;6126;57.908;16.490;2022-12-18T11:14:53;1.90;96.70
12125;DHT22;6126;57.908;16.490;2022-12-18T11:17:33;2.10;96.80
12125;DHT22;6126;57.908;16.490;2022-12-18T11:20:06;1.80;96.60
12125;DHT22;6126;57.908;16.490;2022-12-18T11:25:29;1.90;96.70
12125;DHT22;6126;57.908;16.490;2022-12-18T11:28:01;1.90;96.70
12125;DHT22;6126;57.908;16.490;2022-12-18T11:30:47;2.00;96.70
12125;DHT22;6126;57.908;16.490;2022-12-18T11:33:20;2.00;96.70
12125;DHT22;6126;57.908;16.490;2022-12-18T11:44:02;2.00;96.70
12125;DHT22;6126;57.908;16.490;2022-12-18T11:46:32;1.90;96.70
12125;DHT22;6126;57.908;16.490;2022-12-18T11:49:12;2.10;96.70
12125;DHT22;6126;57.908;16.490;2022-12-18T11:51:54;2.20;96.80
12125;DHT22;6126;57.908;16.490;2022-12-18T11:54:42;1.90;97.00
12125;DHT22;6126;57.908;16.490;2022-12-18T12:03:07;2.00;96.70
12125;DHT22;6126;57.908;16.490;2022-12-18T12:06:10;2.30;96.80
12125;DHT22;6126;57.908;16.490;2022-12-18T12:23:17;2.30;96.80
12125;DHT22;6126;57.908;16.490;2022-12-18T12:26:07;2.20;96.80
12125;DHT22;6126;57.908;16.490;2022-12-18T12:28:55;2.10;96.70
12125;DHT22;6126;57.908;16.490;2022-12-18T12:37:59;2.40;96.90
12125;DHT22;6126;57.908;16.490;2022-12-18T12:40:33;2.30;96.80
12125;DHT22;6126;57.908;16.490;2022-12-18T12:43:37;2.20;96.70
12125;DHT22;6126;57.908;16.490;2022-12-18T12:46:09;2.40;96.80
12125;DHT22;6126;57.908;16.490;2022-12-18T12:49:03;2.20;96.70
12125;DHT22;6126;57.908;16.490;2022-12-18T12:51:37;2.10;96.70
12125;DHT22;6126;57.908;16.490;2022-12-18T12:54:11;2.20;96.70
12125;DHT22;6126;57.908;16.490;2022-12-18T12:57:47;2.30;96.80
12125;DHT22;6126;57.908;16.490;2022-12-18T13:03:12;2.20;96.70
12125;DHT22;6126;57.908;16.490;2022-12-18T13:06:02;2.20;96.70
12125;DHT22;6126;57.908;16.490;2022-12-18T13:08:58;2.30;96.80
12125;DHT22;6126;57.908;16.490;2022-12-18T13:11:35;2.30;96.70
12125;DHT22;6126;57.908;16.490;2022-12-18T13:14:33;2.20;96.70
12125;DHT22;6126;57.908;16.490;2022-12-18T13:20:10;2.30;96.70
12125;DHT22;6126;57.908;16.490;2022-12-18T13:22:47;2.30;96.80
12125;DHT22;6126;57.908;16.490;2022-12-18T13:28:04;2.40;96.80
12125;DHT22;6126;57.908;16.490;2022-12-18T13:40:57;2.40;96.80
12125;DHT22;6126;57.908;16.490;2022-12-18T13:43:27;2.50;96.80
12125;DHT22;6126;57.908;16.490;2022-12-18T13:49:02;2.70;96.90
12125;DHT22;6126;57.908;16.490;2022-12-18T13:51:33;2.40;96.80
12125;DHT22;6126;57.908;16.490;2022-12-18T13:54:49;2.40;96.80
12125;DHT22;6126;57.908;16.490;2022-12-18T13:56:56;2.40;96.80
12125;DHT22;6126;57.908;16.490;2022-12-18T13:59:24;2.50;96.90
12125;DHT22;6126;57.908;16.490;2022-12-18T14:02:00;2.60;96.90
12125;DHT22;6126;57.908;16.490;2022-12-18T14:04:35;2.40;96.80
12125;DHT22;6126;57.908;16.490;2022-12-18T14:07:03;2.70;97.00
12125;DHT22;6126;57.908;16.490;2022-12-18T14:09:34;2.60;96.90
12125;DHT22;6126;57.908;16.490;2022-12-18T14:12:02;2.30;96.80
12125;DHT22;6126;57.908;16.490;2022-12-18T14:14:49;2.50;96.90
12125;DHT22;6126;57.908;16.490;2022-12-18T14:17:18;2.40;96.80
12125;DHT22;6126;57.908;16.490;2022-12-18T14:19:49;2.70;97.00
12125;DHT22;6126;57.908;16.490;2022-12-18T14:22:25;2.70;97.00
12125;DHT22;6126;57.908;16.490;2022-12-18T14:25:27;2.60;96.90
12125;DHT22;6126;57.908;16.490;2022-12-18T14:35:51;2.70;96.90
12125;DHT22;6126;57.908;16.490;2022-12-18T14:41:15;2.70;96.90
12125;DHT22;6126;57.908;16.490;2022-12-18T14:43:44;2.50;96.80
12125;DHT22;6126;57.908;16.490;2022-12-18T14:46:43;2.50;96.80
12125;DHT22;6126;57.908;16.490;2022-12-18T14:49:24;2.70;97.00
12125;DHT22;6126;57.908;16.490;2022-12-18T14:54:30;2.80;97.00
12125;DHT22;6126;57.908;16.490;2022-12-18T14:57:03;2.50;96.90
12125;DHT22;6126;57.908;16.490;2022-12-18T14:59:31;2.50;96.90
12125;DHT22;6126;57.908;16.490;2022-12-18T15:04:41;2.50;96.80
12125;DHT22;6126;57.908;16.490;2022-12-18T15:21:07;2.60;96.90
12125;DHT22;6126;57.908;16.490;2022-12-18T15:26:08;2.70;97.00
12125;DHT22;6126;57.908;16.490;2022-12-18T15:28:54;2.80;97.00
12125;DHT22;6126;57.908;16.490;2022-12-18T15:31:33;2.40;96.80
12125;DHT22;6126;57.908;16.490;2022-12-18T15:34:18;2.50;96.80
12125;DHT22;6126;57.908;16.490;2022-12-18T15:36:46;2.80;97.00
12125;DHT22;6126;57.908;16.490;2022-12-18T15:39:14;2.80;97.00
12125;DHT22;6126;57.908;16.490;2022-12-18T15:41:40;2.50;96.90
12125;DHT22;6126;57.908;16.490;2022-12-18T15:44:26;2.70;97.00
12125;DHT22;6126;57.908;16.490;2022-12-18T15:46:52;2.60;96.90
12125;DHT22;6126;57.908;16.490;2022-12-18T15:49:18;2.60;96.90
12125;DHT22;6126;57.908;16.490;2022-12-18T15:51:44;2.60;96.90
12125;DHT22;6126;57.908;16.490;2022-12-18T15:54:14;2.80;97.00
12125;DHT22;6126;57.908;16.490;2022-12-18T15:57:03;2.70;97.30
12125;DHT22;6126;57.908;16.490;2022-12-18T15:59:48;2.70;97.00
12125;DHT22;6126;57.908;16.490;2022-12-18T16:02:19;2.40;96.90
12125;DHT22;6126;57.908;16.490;2022-12-18T16:04:46;2.70;97.00
12125;DHT22;6126;57.908;16.490;2022-12-18T16:07:12;2.40;96.90
12125;DHT22;6126;57.908;16.490;2022-12-18T16:09:38;2.60;97.00
12125;DHT22;6126;57.908;16.490;2022-12-18T16:12:06;2.60;97.00
12125;DHT22;6126;57.908;16.490;2022-12-18T16:14:36;2.70;97.00
12125;DHT22;6126;57.908;16.490;2022-12-18T16:17:06;2.70;97.00
12125;DHT22;6126;57.908;16.490;2022-12-18T16:19:35;2.70;97.00
12125;DHT22;6126;57.908;16.490;2022-12-18T16:22:01;2.80;97.10
12125;DHT22;6126;57.908;16.490;2022-12-18T16:24:29;2.70;97.00
12125;DHT22;6126;57.908;16.490;2022-12-18T16:26:58;2.50;96.90
12125;DHT22;6126;57.908;16.490;2022-12-18T16:29:26;2.60;97.00
12125;DHT22;6126;57.908;16.490;2022-12-18T16:31:54;2.80;97.10
12125;DHT22;6126;57.908;16.490;2022-12-18T16:37:03;2.80;97.00
12125;DHT22;6126;57.908;16.490;2022-12-18T16:39:31;2.90;97.10
12125;DHT22;6126;57.908;16.490;2022-12-18T16:42:01;2.60;97.00
12125;DHT22;6126;57.908;16.490;2022-12-18T16:44:28;2.90;97.10
12125;DHT22;6126;57.908;16.490;2022-12-18T16:46:54;2.70;97.00
12125;DHT22;6126;57.908;16.490;2022-12-18T16:49:21;2.70;97.00
12125;DHT22;6126;57.908;16.490;2022-12-18T16:51:47;2.70;97.00
12125;DHT22;6126;57.908;16.490;2022-12-18T16:54:13;2.70;96.90
12125;DHT22;6126;57.908;16.490;2022-12-18T16:56:39;2.70;97.00
12125;DHT22;6126;57.908;16.490;2022-12-18T16:59:07;2.90;97.00
12125;DHT22;6126;57.908;16.490;2022-12-18T17:01:35;3.00;97.10
12125;DHT22;6126;57.908;16.490;2022-12-18T17:04:04;2.70;97.00
12125;DHT22;6126;57.908;16.490;2022-12-18T17:06:33;2.80;97.00
12125;DHT22;6126;57.908;16.490;2022-12-18T17:09:03;2.70;96.90
12125;DHT22;6126;57.908;16.490;2022-12-18T17:11:32;2.80;97.00
12125;DHT22;6126;57.908;16.490;2022-12-18T17:14:18;2.50;96.90
12125;DHT22;6126;57.908;16.490;2022-12-18T17:16:46;2.70;97.00
12125;DHT22;6126;57.908;16.490;2022-12-18T17:19:13;2.80;97.10
12125;DHT22;6126;57.908;16.490;2022-12-18T17:21:40;2.80;97.00
12125;DHT22;6126;57.908;16.490;2022-12-18T17:24:06;2.60;97.00
12125;DHT22;6126;57.908;16.490;2022-12-18T17:26:32;2.70;97.00
12125;DHT22;6126;57.908;16.490;2022-12-18T17:28:58;2.80;97.00
12125;DHT22;6126;57.908;16.490;2022-12-18T17:31:26;2.60;96.90
12125;DHT22;6126;57.908;16.490;2022-12-18T17:33:54;2.90;97.10
12125;DHT22;6126;57.908;16.490;2022-12-18T17:36:21;2.80;97.00
12125;DHT22;6126;57.908;16.490;2022-12-18T17:38:55;3.00;97.10
12125;DHT22;6126;57.908;16.490;2022-12-18T17:41:24;2.60;97.00
12125;DHT22;6126;57.908;16.490;2022-12-18T17:43:53;2.90;97.10
12125;DHT22;6126;57.908;16.490;2022-12-18T17:46:20;2.70;97.00
12125;DHT22;6126;57.908;16.490;2022-12-18T17:48:47;2.70;97.00
12125;DHT22;6126;57.908;16.490;2022-12-18T17:51:14;3.00;97.10
12125;DHT22;6126;57.908;16.490;2022-12-18T17:53:41;2.70;97.00
12125;DHT22;6126;57.908;16.490;2022-12-18T17:56:09;2.70;97.00
12125;DHT22;6126;57.908;16.490;2022-12-18T17:58:37;2.80;97.00
12125;DHT22;6126;57.908;16.490;2022-12-18T18:01:04;2.90;97.00
12125;DHT22;6126;57.908;16.490;2022-12-18T18:03:32;2.80;97.00
12125;DHT22;6126;57.908;16.490;2022-12-18T18:05:59;2.80;97.10
12125;DHT22;6126;57.908;16.490;2022-12-18T18:08:27;2.60;96.90
12125;DHT22;6126;57.908;16.490;2022-12-18T18:10:54;2.80;97.00
12125;DHT22;6126;57.908;16.490;2022-12-18T18:13:40;2.90;97.10
12125;DHT22;6126;57.908;16.490;2022-12-18T18:16:26;2.50;96.90
12125;DHT22;6126;57.908;16.490;2022-12-18T18:19:01;2.80;97.10
12125;DHT22;6126;57.908;16.490;2022-12-18T18:21:30;2.80;97.00
12125;DHT22;6126;57.908;16.490;2022-12-18T18:24:03;2.80;97.00
12125;DHT22;6126;57.908;16.490;2022-12-18T18:26:31;2.60;96.90
12125;DHT22;6126;57.908;16.490;2022-12-18T18:29:00;2.60;96.90
12125;DHT22;6126;57.908;16.490;2022-12-18T18:31:27;2.80;97.10